Time;durP1;ratioP1;P1;durP2;ratioP2;P2;SDS_P1;SDS_P2;PMS_P1;PMS_P2;Temp;Humidity;BMP_temperature;BMP_pressure;BME280_temperature;BME280_humidity;BME280_pressure;Samples;Min_cycle;Max_cycle;Signal;HPM_P1;HPM_P2
2023/05/05 00:01:59;;;;;;;4.60;4.20;;;19.40;57.20;;;;;;4956208;28;20701;-67
2023/05/05 00:04:25;;;;;;;4.70;4.30;;;19.40;57.10;;;;;;4956328;28;20213;-68
2023/05/05 00:06:51;;;;;;;4.68;4.25;;;19.40;57.10;;;;;;4956069;28;20221;-68
2023/05/05 00:09:17;;;;;;;4.93;4.53;;;19.40;57.10;;;;;;4956094;28;20210;-68
2023/05/05 00:11:43;;;;;;;4.93;4.43;;;19.40;57.10;;;;;;4972198;28;20178;-68
2023/05/05 00:14:08;;;;;;;5.00;4.47;;;19.40;57.20;;;;;;4955925;28;20193;-68
2023/05/05 00:16:34;;;;;;;4.70;4.30;;;19.40;57.20;;;;;;4940223;28;20232;-68
2023/05/05 00:19:00;;;;;;;4.43;4.03;;;19.40;57.20;;;;;;4955964;28;20205;-68
2023/05/05 00:21:28;;;;;;;4.85;4.45;;;19.40;57.20;;;;;;4956086;28;20286;-68
2023/05/05 00:23:54;;;;;;;4.95;4.45;;;19.40;57.20;;;;;;4955955;28;20206;-68
2023/05/05 00:26:20;;;;;;;4.68;4.22;;;19.40;57.20;;;;;;4955757;28;20645;-67
2023/05/05 00:28:49;;;;;;;4.97;4.57;;;19.40;57.20;;;;;;4956173;28;20200;-68
2023/05/05 00:31:15;;;;;;;5.07;4.57;;;19.40;57.20;;;;;;4968741;28;20195;-67
2023/05/05 00:33:41;;;;;;;4.68;4.28;;;19.40;57.20;;;;;;4984826;28;20651;-68
2023/05/05 00:36:08;;;;;;;4.65;4.25;;;19.40;57.20;;;;;;4952534;28;20197;-68
2023/05/05 00:38:33;;;;;;;5.20;4.75;;;19.40;57.20;;;;;;4955668;28;20740;-67
2023/05/05 00:40:59;;;;;;;5.43;4.50;;;19.40;57.20;;;;;;4956126;28;20193;-67
2023/05/05 00:43:26;;;;;;;5.13;4.30;;;19.40;57.20;;;;;;4955609;28;20189;-68
2023/05/05 00:46:02;;;;;;;4.65;4.25;;;19.40;57.20;;;;;;4939348;28;20261;-68
2023/05/05 00:48:32;;;;;;;5.18;4.78;;;19.40;57.20;;;;;;4938719;28;20209;-68
2023/05/05 00:50:58;;;;;;;4.65;4.25;;;19.40;57.20;;;;;;4988206;28;20221;-68
2023/05/05 00:53:26;;;;;;;4.65;4.25;;;19.40;57.20;;;;;;4988197;28;20186;-68
2023/05/05 00:55:52;;;;;;;4.75;4.35;;;19.40;57.20;;;;;;4987557;28;20264;-67
2023/05/05 00:58:18;;;;;;;4.40;4.00;;;19.40;57.20;;;;;;4955650;28;20204;-68
2023/05/05 01:00:44;;;;;;;4.32;3.97;;;19.40;57.20;;;;;;4955898;28;20198;-67
2023/05/05 01:03:11;;;;;;;4.93;4.45;;;19.30;57.20;;;;;;4955836;28;20198;-67
2023/05/05 01:06:17;;;;;;;4.38;4.07;;;19.40;57.20;;;;;;4955673;29;20214;-68
2023/05/05 01:09:07;;;;;;;3.95;3.55;;;19.30;57.20;;;;;;4967971;28;20201;-67
2023/05/05 01:11:50;;;;;;;4.35;3.95;;;19.40;57.30;;;;;;4991277;28;20181;-68
2023/05/05 01:14:25;;;;;;;4.75;4.35;;;19.30;57.20;;;;;;4959023;28;20711;-67
2023/05/05 01:17:01;;;;;;;4.53;4.20;;;19.30;57.20;;;;;;4942993;28;20194;-66
2023/05/05 01:19:45;;;;;;;4.65;4.25;;;19.30;57.20;;;;;;4958944;28;20200;-67
2023/05/05 01:22:14;;;;;;;4.75;4.18;;;19.30;57.20;;;;;;4942747;28;20205;-68
2023/05/05 01:25:21;;;;;;;4.10;3.70;;;19.30;57.20;;;;;;4967101;28;20363;-69
2023/05/05 01:28:37;;;;;;;4.22;3.92;;;19.30;57.20;;;;;;4968081;28;20743;-67
2023/05/05 01:31:35;;;;;;;4.07;3.78;;;19.30;57.20;;;;;;4942636;28;20209;-67
2023/05/05 01:34:08;;;;;;;4.40;4.00;;;19.30;57.20;;;;;;4958884;28;20216;-67
2023/05/05 01:36:41;;;;;;;3.85;3.55;;;19.30;57.20;;;;;;4958748;28;20188;-68
2023/05/05 01:39:13;;;;;;;4.30;4.00;;;19.30;57.20;;;;;;4958652;28;20660;-67
2023/05/05 01:41:48;;;;;;;4.20;3.90;;;19.30;57.20;;;;;;4970899;28;20306;-68
2023/05/05 01:44:17;;;;;;;4.00;3.70;;;19.30;57.20;;;;;;4947520;28;20225;-67
2023/05/05 01:46:47;;;;;;;5.15;4.65;;;19.30;57.20;;;;;;4990636;28;20235;-68
2023/05/05 01:49:15;;;;;;;4.50;4.10;;;19.30;57.20;;;;;;4958316;28;20240;-67
2023/05/05 01:51:42;;;;;;;4.05;3.67;;;19.30;57.20;;;;;;4958282;28;20198;-68
2023/05/05 01:54:09;;;;;;;4.43;4.03;;;19.30;57.20;;;;;;4942289;28;20217;-68
2023/05/05 01:56:39;;;;;;;4.30;4.00;;;19.30;57.20;;;;;;4974672;28;20202;-68
2023/05/05 01:59:06;;;;;;;4.43;4.05;;;19.30;57.20;;;;;;4958321;28;20193;-68
2023/05/05 02:01:40;;;;;;;4.63;4.22;;;19.30;57.20;;;;;;4974434;28;20205;-68
2023/05/05 02:04:08;;;;;;;4.57;4.18;;;19.30;57.20;;;;;;4958362;28;20224;-68
2023/05/05 02:06:36;;;;;;;4.18;3.83;;;19.30;57.20;;;;;;4957995;28;20190;-68
2023/05/05 02:09:03;;;;;;;4.40;4.10;;;19.30;57.20;;;;;;4975376;28;20189;-68
2023/05/05 02:11:29;;;;;;;4.57;4.18;;;19.30;57.20;;;;;;4957963;28;20672;-68
2023/05/05 02:13:57;;;;;;;4.55;4.13;;;19.30;57.20;;;;;;4958093;28;20208;-68
2023/05/05 02:16:24;;;;;;;4.07;3.78;;;19.30;57.20;;;;;;4957207;28;20191;-68
2023/05/05 02:18:51;;;;;;;4.03;3.72;;;19.30;57.20;;;;;;4957893;28;20190;-67
2023/05/05 02:21:17;;;;;;;3.65;3.35;;;19.30;57.20;;;;;;4958048;28;20216;-67
2023/05/05 02:23:50;;;;;;;4.30;3.95;;;19.30;57.20;;;;;;4973810;28;20239;-67
2023/05/05 02:26:20;;;;;;;4.25;3.95;;;19.30;57.30;;;;;;4957467;28;20200;-68
2023/05/05 02:28:54;;;;;;;3.90;3.60;;;19.30;57.30;;;;;;4957993;28;20197;-68
2023/05/05 02:31:26;;;;;;;4.10;3.80;;;19.30;57.30;;;;;;4957857;28;20185;-68
2023/05/05 02:33:58;;;;;;;4.35;4.05;;;19.30;57.30;;;;;;4957457;28;20279;-68
2023/05/05 02:36:29;;;;;;;4.40;4.10;;;19.30;57.30;;;;;;4941493;28;20680;-68
2023/05/05 02:39:12;;;;;;;4.18;3.85;;;19.30;57.30;;;;;;4989714;28;20173;-67
2023/05/05 02:41:42;;;;;;;4.25;3.95;;;19.30;57.30;;;;;;4941722;28;20166;-67
2023/05/05 02:44:20;;;;;;;4.82;4.32;;;19.30;57.30;;;;;;4989429;28;20347;-67
2023/05/05 02:46:46;;;;;;;4.18;3.88;;;19.30;57.30;;;;;;4973286;28;20209;-67
2023/05/05 02:49:14;;;;;;;4.55;4.15;;;19.30;57.30;;;;;;4988523;28;20224;-67
2023/05/05 02:51:40;;;;;;;4.80;4.30;;;19.30;57.30;;;;;;4941429;28;20212;-68
2023/05/05 02:54:13;;;;;;;3.63;3.42;;;19.30;57.30;;;;;;4956730;28;20732;-67
2023/05/05 02:56:49;;;;;;;4.00;3.70;;;19.30;57.30;;;;;;4956754;28;20265;-67
2023/05/05 03:00:09;;;;;;;4.25;3.80;;;19.30;57.30;;;;;;4956516;28;20197;-67
2023/05/05 03:03:02;;;;;;;4.28;3.97;;;19.30;57.30;;;;;;4956917;28;20193;-67
2023/05/05 03:05:50;;;;;;;3.92;3.63;;;19.30;57.30;;;;;;4989146;28;20233;-68
2023/05/05 03:08:49;;;;;;;4.18;3.88;;;19.30;57.30;;;;;;4956591;28;20214;-68
2023/05/05 03:11:31;;;;;;;3.80;3.50;;;19.30;57.30;;;;;;4956946;28;20189;-67
2023/05/05 03:14:18;;;;;;;3.88;3.58;;;19.30;57.30;;;;;;4969976;28;20233;-67
2023/05/05 03:16:48;;;;;;;4.28;3.97;;;19.30;57.30;;;;;;4934188;28;20193;-68
2023/05/05 03:19:18;;;;;;;4.20;3.80;;;19.30;57.30;;;;;;4956737;28;20336;-68
2023/05/05 03:21:47;;;;;;;4.13;3.83;;;19.30;57.30;;;;;;4956800;28;20665;-67
2023/05/05 03:24:18;;;;;;;4.50;4.13;;;19.20;57.20;;;;;;4940612;28;20214;-67
2023/05/05 03:26:52;;;;;;;3.83;3.53;;;19.30;57.30;;;;;;4955660;28;20296;-67
2023/05/05 03:29:21;;;;;;;4.63;4.25;;;19.30;57.30;;;;;;4940854;28;20248;-68
2023/05/05 03:31:48;;;;;;;4.50;4.05;;;19.20;57.30;;;;;;4972846;28;20190;-68
2023/05/05 03:34:14;;;;;;;3.50;3.30;;;19.30;57.30;;;;;;4956018;28;20222;-67
2023/05/05 03:36:44;;;;;;;3.95;3.63;;;19.20;57.20;;;;;;4972400;28;20188;-68
2023/05/05 03:39:12;;;;;;;4.05;3.75;;;19.20;57.30;;;;;;4972699;28;20202;-67
2023/05/05 03:41:38;;;;;;;3.80;3.50;;;19.30;57.30;;;;;;4956177;28;20185;-68
2023/05/05 03:44:06;;;;;;;4.40;4.00;;;19.30;57.30;;;;;;4956123;28;20217;-68
2023/05/05 03:46:32;;;;;;;4.57;4.18;;;19.30;57.30;;;;;;4955783;28;20185;-67
2023/05/05 03:48:58;;;;;;;3.88;3.58;;;19.20;57.20;;;;;;4956013;28;20190;-68
2023/05/05 03:51:25;;;;;;;4.25;3.95;;;19.20;57.20;;;;;;4955772;28;20677;-67
2023/05/05 03:53:52;;;;;;;4.10;3.80;;;19.20;57.20;;;;;;4973233;28;20215;-68
2023/05/05 03:56:17;;;;;;;4.80;4.18;;;19.20;57.20;;;;;;4956071;28;20197;-68
2023/05/05 03:58:43;;;;;;;4.30;3.92;;;19.20;57.30;;;;;;4956328;28;20197;-68
2023/05/05 04:01:10;;;;;;;4.10;3.75;;;19.20;57.20;;;;;;4956094;28;20194;-68
2023/05/05 04:03:36;;;;;;;3.83;3.53;;;19.20;57.20;;;;;;4956065;28;20292;-68
2023/05/05 04:06:02;;;;;;;4.18;3.88;;;19.20;57.30;;;;;;4973180;28;20225;-68
2023/05/05 04:08:30;;;;;;;4.30;3.90;;;19.20;57.30;;;;;;4955712;28;20295;-68
2023/05/05 04:10:56;;;;;;;3.85;3.40;;;19.20;57.30;;;;;;4969051;28;20194;-68
2023/05/05 04:13:23;;;;;;;3.80;3.50;;;19.20;57.30;;;;;;4953885;28;20190;-67
2023/05/05 04:15:48;;;;;;;4.00;3.70;;;19.20;57.30;;;;;;4955733;28;20201;-69
2023/05/05 04:18:15;;;;;;;3.85;3.55;;;19.30;57.40;;;;;;4955683;28;20197;-68
2023/05/05 04:20:42;;;;;;;4.00;3.70;;;19.20;57.30;;;;;;4955967;28;20276;-68
2023/05/05 04:23:08;;;;;;;4.20;3.90;;;19.20;57.30;;;;;;4988484;28;20193;-67
2023/05/05 04:25:34;;;;;;;4.35;3.97;;;19.20;57.30;;;;;;4971629;28;20206;-67
2023/05/05 04:28:00;;;;;;;4.43;4.03;;;19.20;57.30;;;;;;4939971;28;20215;-68
2023/05/05 04:30:27;;;;;;;3.90;3.60;;;19.20;57.30;;;;;;4955789;28;20216;-67
2023/05/05 04:32:53;;;;;;;4.20;3.72;;;19.20;57.30;;;;;;4939762;28;20224;-67
2023/05/05 04:35:18;;;;;;;4.00;3.60;;;19.20;57.30;;;;;;4955501;28;20586;-68
2023/05/05 04:37:44;;;;;;;4.05;3.75;;;19.20;57.30;;;;;;4956417;28;20193;-68
2023/05/05 04:40:11;;;;;;;3.88;3.58;;;19.20;57.30;;;;;;4959665;28;20197;-67
2023/05/05 04:42:38;;;;;;;3.90;3.60;;;19.20;57.30;;;;;;4943807;28;20200;-67
2023/05/05 04:45:05;;;;;;;3.80;3.50;;;19.20;57.30;;;;;;4967699;28;20210;-67
2023/05/05 04:47:36;;;;;;;4.00;3.70;;;19.20;57.40;;;;;;4959195;28;20570;-67
2023/05/05 04:50:02;;;;;;;4.38;3.97;;;19.20;57.30;;;;;;4975535;28;20277;-68
2023/05/05 04:52:28;;;;;;;3.90;3.60;;;19.20;57.40;;;;;;4975494;28;20279;-67
2023/05/05 04:54:53;;;;;;;3.88;3.58;;;19.20;57.40;;;;;;4958848;28;20213;-67
2023/05/05 04:57:19;;;;;;;3.90;3.60;;;19.20;57.40;;;;;;4973115;28;20194;-67
2023/05/05 04:59:45;;;;;;;4.00;3.70;;;19.20;57.30;;;;;;4959174;28;20288;-68
2023/05/05 05:02:12;;;;;;;4.25;3.90;;;19.20;57.40;;;;;;4959459;28;20189;-67
2023/05/05 05:04:37;;;;;;;3.80;3.50;;;19.30;57.40;;;;;;4951384;28;20216;-67
2023/05/05 05:07:03;;;;;;;4.68;4.28;;;19.20;57.40;;;;;;4959317;28;20213;-68
2023/05/05 05:09:29;;;;;;;3.90;3.60;;;19.30;57.50;;;;;;4976619;28;20190;-67
2023/05/05 05:11:59;;;;;;;5.00;3.22;;;19.30;57.50;;;;;;4975083;28;20185;-68
2023/05/05 05:14:26;;;;;;;3.97;3.67;;;19.30;57.50;;;;;;4958631;28;20293;-68
2023/05/05 05:16:52;;;;;;;3.90;3.60;;;19.30;57.50;;;;;;4958713;28;20193;-68
2023/05/05 05:19:20;;;;;;;3.97;3.67;;;19.30;57.50;;;;;;4943198;28;20190;-68
2023/05/05 05:21:46;;;;;;;3.92;3.50;;;19.30;57.50;;;;;;4943246;28;20186;-67
2023/05/05 05:24:12;;;;;;;3.85;3.55;;;19.20;57.40;;;;;;4959003;28;20723;-67
2023/05/05 05:26:38;;;;;;;3.78;3.47;;;19.30;57.60;;;;;;4958487;28;20280;-68
2023/05/05 05:29:05;;;;;;;3.60;3.38;;;19.30;57.60;;;;;;4959086;28;20352;-68
2023/05/05 05:31:33;;;;;;;4.20;3.80;;;19.30;57.60;;;;;;4958414;28;20185;-68
2023/05/05 05:33:59;;;;;;;4.63;4.25;;;19.30;57.60;;;;;;4958454;28;20212;-67
2023/05/05 05:36:26;;;;;;;3.92;3.63;;;19.30;57.60;;;;;;4958192;28;20190;-68
2023/05/05 05:38:52;;;;;;;5.00;3.83;;;19.30;57.60;;;;;;4974733;28;20257;-67
2023/05/05 05:41:18;;;;;;;4.97;4.07;;;19.30;57.60;;;;;;4990939;28;20193;-68
2023/05/05 05:43:43;;;;;;;4.28;3.80;;;19.30;57.60;;;;;;4958232;28;20177;-69
2023/05/05 05:46:09;;;;;;;3.63;3.30;;;19.30;57.70;;;;;;4958400;28;20197;-68
2023/05/05 05:48:38;;;;;;;4.15;3.75;;;19.30;57.70;;;;;;4958299;28;20241;-67
2023/05/05 05:51:03;;;;;;;4.53;4.13;;;19.30;57.70;;;;;;4957443;28;20220;-69
2023/05/05 05:53:29;;;;;;;4.35;3.95;;;19.30;57.70;;;;;;4958127;28;20197;-68
2023/05/05 05:55:55;;;;;;;4.07;3.78;;;19.30;57.80;;;;;;4957802;28;20221;-69
2023/05/05 05:58:21;;;;;;;3.75;3.45;;;19.30;57.80;;;;;;4990753;28;20194;-67
2023/05/05 06:00:47;;;;;;;4.10;3.67;;;19.30;57.70;;;;;;4950100;28;20189;-67
2023/05/05 06:03:13;;;;;;;4.40;3.97;;;19.30;57.80;;;;;;4942069;28;20194;-69
2023/05/05 06:05:40;;;;;;;4.18;3.88;;;19.30;57.80;;;;;;4958095;28;20276;-67
2023/05/05 06:08:06;;;;;;;3.78;3.47;;;19.30;57.80;;;;;;4958019;28;20213;-68
2023/05/05 06:10:36;;;;;;;3.80;3.50;;;19.30;57.80;;;;;;4957822;28;20241;-68
2023/05/05 06:13:13;;;;;;;3.72;3.42;;;19.30;58.00;;;;;;4970835;28;20272;-68
2023/05/05 06:15:43;;;;;;;4.15;3.75;;;19.30;57.90;;;;;;4957464;28;20260;-67
2023/05/05 06:18:11;;;;;;;4.32;3.97;;;19.30;57.90;;;;;;4957961;28;20265;-68
2023/05/05 06:20:36;;;;;;;3.72;3.47;;;19.30;57.90;;;;;;4957639;28;20193;-68
2023/05/05 06:23:02;;;;;;;3.90;3.60;;;19.30;57.90;;;;;;4958133;28;20221;-68
2023/05/05 06:25:31;;;;;;;3.88;3.58;;;19.30;57.90;;;;;;4957610;28;20209;-68
2023/05/05 06:27:57;;;;;;;3.83;3.53;;;19.30;57.90;;;;;;4957883;28;20224;-67
2023/05/05 06:30:24;;;;;;;3.90;3.60;;;19.30;57.90;;;;;;4941389;28;20185;-68
2023/05/05 06:32:50;;;;;;;4.45;3.95;;;19.30;58.00;;;;;;4973581;28;20614;-68
2023/05/05 06:35:16;;;;;;;4.30;4.00;;;19.30;58.00;;;;;;4957457;28;20289;-68
2023/05/05 06:37:43;;;;;;;4.30;3.90;;;19.30;58.00;;;;;;4957546;28;20223;-68
2023/05/05 06:40:09;;;;;;;4.25;3.85;;;19.30;58.00;;;;;;4941727;28;20202;-67
2023/05/05 06:42:35;;;;;;;3.58;3.28;;;19.30;58.10;;;;;;4957313;28;20189;-68
2023/05/05 06:45:03;;;;;;;4.13;3.50;;;19.30;58.10;;;;;;4956971;28;20205;-68
2023/05/05 06:47:29;;;;;;;4.07;3.78;;;19.30;58.00;;;;;;4957004;28;20228;-68
2023/05/05 06:49:55;;;;;;;3.40;3.20;;;19.30;58.10;;;;;;4989400;28;20193;-68
2023/05/05 06:52:22;;;;;;;3.80;3.50;;;19.30;58.10;;;;;;4989346;28;20189;-67
2023/05/05 06:54:47;;;;;;;4.20;3.90;;;19.30;58.10;;;;;;4956835;28;20288;-68
2023/05/05 06:57:13;;;;;;;4.30;3.47;;;19.30;58.10;;;;;;4974275;28;20760;-67
2023/05/05 06:59:39;;;;;;;3.70;3.40;;;19.30;58.20;;;;;;4954027;29;20201;-68
2023/05/05 07:02:05;;;;;;;3.90;3.50;;;19.30;58.80;;;;;;4952819;28;20190;-67
2023/05/05 07:04:31;;;;;;;4.07;3.58;;;19.30;58.30;;;;;;4956339;28;20217;-68
2023/05/05 07:06:57;;;;;;;3.80;3.50;;;19.30;58.20;;;;;;4940458;28;20226;-68
2023/05/05 07:09:23;;;;;;;3.80;3.50;;;19.30;58.30;;;;;;4988961;28;20215;-68
2023/05/05 07:11:49;;;;;;;3.60;3.30;;;19.30;58.20;;;;;;4940876;28;20252;-67
2023/05/05 07:14:14;;;;;;;3.72;3.42;;;19.30;58.30;;;;;;4956881;28;20205;-67
2023/05/05 07:16:40;;;;;;;3.78;3.47;;;19.30;58.30;;;;;;4957295;28;20208;-69
2023/05/05 07:19:06;;;;;;;3.50;3.20;;;19.30;58.40;;;;;;4956716;28;20203;-68
2023/05/05 07:21:33;;;;;;;3.67;3.38;;;19.30;58.20;;;;;;4956540;28;20220;-67
2023/05/05 07:23:59;;;;;;;4.07;3.20;;;19.30;58.30;;;;;;4956517;28;20221;-68
2023/05/05 07:26:25;;;;;;;3.80;3.40;;;19.30;58.40;;;;;;4940444;28;20198;-67
2023/05/05 07:28:51;;;;;;;3.83;3.28;;;19.40;58.40;;;;;;4940680;28;20213;-67
2023/05/05 07:31:20;;;;;;;3.58;3.30;;;19.30;58.30;;;;;;4956760;28;20197;-67
2023/05/05 07:33:47;;;;;;;3.50;3.20;;;19.40;58.40;;;;;;4956638;28;20251;-68
2023/05/05 07:36:12;;;;;;;3.65;3.35;;;19.40;58.50;;;;;;4955973;28;20571;-68
2023/05/05 07:38:38;;;;;;;3.10;2.90;;;19.40;58.50;;;;;;4969259;28;20321;-67
2023/05/05 07:41:04;;;;;;;3.42;3.13;;;19.40;58.50;;;;;;4951991;28;20189;-67
2023/05/05 07:43:30;;;;;;;3.35;3.03;;;19.40;58.50;;;;;;4957101;28;20260;-67
2023/05/05 07:45:55;;;;;;;3.28;3.08;;;19.50;58.60;;;;;;4973527;28;20712;-68
2023/05/05 07:48:21;;;;;;;3.20;3.00;;;19.40;58.50;;;;;;4940149;28;20315;-68
2023/05/05 07:50:47;;;;;;;3.42;3.13;;;19.50;58.60;;;;;;4956139;28;20181;-68
2023/05/05 07:53:13;;;;;;;3.85;3.17;;;19.50;58.60;;;;;;4956268;28;20197;-68
2023/05/05 07:55:38;;;;;;;3.60;3.30;;;19.50;58.70;;;;;;4956091;28;20213;-67
2023/05/05 07:58:04;;;;;;;3.58;3.08;;;19.50;58.80;;;;;;4969189;28;20190;-68
2023/05/05 08:00:30;;;;;;;3.22;3.00;;;19.50;58.80;;;;;;4963420;28;20198;-67
2023/05/05 08:02:55;;;;;;;3.30;3.00;;;19.50;58.80;;;;;;4956318;28;20196;-68
2023/05/05 08:05:21;;;;;;;3.65;3.35;;;19.50;58.80;;;;;;4955756;28;20213;-67
2023/05/05 08:07:47;;;;;;;3.20;2.90;;;19.50;58.90;;;;;;4972360;28;20209;-67
2023/05/05 08:10:13;;;;;;;3.22;3.00;;;19.50;59.00;;;;;;4955888;28;20233;-67
2023/05/05 08:12:39;;;;;;;3.00;2.80;;;19.50;59.10;;;;;;4941057;28;20207;-68
2023/05/05 08:15:05;;;;;;;2.97;2.70;;;19.50;59.00;;;;;;4979358;28;20304;-68
2023/05/05 08:17:47;;;;;;;2.95;2.75;;;19.40;58.90;;;;;;4962284;28;20196;-68
2023/05/05 08:20:15;;;;;;;3.45;2.65;;;19.40;58.90;;;;;;4979487;28;20197;-68
2023/05/05 08:22:41;;;;;;;2.97;2.72;;;19.40;58.90;;;;;;4979534;28;20192;-69
2023/05/05 08:25:11;;;;;;;2.88;2.67;;;19.40;59.00;;;;;;4961947;28;20224;-68
2023/05/05 08:27:41;;;;;;;3.10;2.78;;;19.40;59.00;;;;;;4975339;28;20210;-68
2023/05/05 08:30:08;;;;;;;3.10;2.90;;;19.40;59.00;;;;;;4994614;28;20189;-68
2023/05/05 08:32:34;;;;;;;2.67;2.47;;;19.40;59.00;;;;;;4962121;28;20181;-68
2023/05/05 08:35:05;;;;;;;2.33;2.20;;;19.40;59.00;;;;;;4994280;28;20228;-68
2023/05/05 08:37:31;;;;;;;3.08;2.88;;;19.40;59.00;;;;;;4994654;28;20189;-68
2023/05/05 08:39:57;;;;;;;3.08;2.88;;;19.40;59.00;;;;;;4946088;28;20229;-68
2023/05/05 08:42:23;;;;;;;3.35;2.80;;;19.50;59.10;;;;;;4961981;28;20197;-68
2023/05/05 08:44:50;;;;;;;2.67;2.47;;;19.40;59.10;;;;;;4962071;28;20209;-67
2023/05/05 08:47:16;;;;;;;2.78;2.58;;;19.40;59.10;;;;;;4979244;28;20220;-68
2023/05/05 08:49:45;;;;;;;2.65;2.45;;;19.40;59.10;;;;;;4962091;28;20548;-68
2023/05/05 08:52:22;;;;;;;2.83;2.60;;;19.40;59.00;;;;;;4962008;28;20197;-68
2023/05/05 08:54:55;;;;;;;2.83;2.25;;;19.50;59.10;;;;;;4987041;28;20247;-67
2023/05/05 08:57:35;;;;;;;3.03;2.75;;;19.40;59.10;;;;;;4961622;28;20240;-68
2023/05/05 09:00:02;;;;;;;2.72;2.50;;;19.50;59.10;;;;;;4962047;28;20193;-68
2023/05/05 09:02:29;;;;;;;2.83;2.63;;;19.50;59.10;;;;;;4977999;28;20189;-68
2023/05/05 09:04:55;;;;;;;2.95;2.50;;;19.40;59.20;;;;;;4979223;28;20739;-68
2023/05/05 09:07:21;;;;;;;2.83;2.63;;;19.40;59.20;;;;;;4946082;28;20308;-67
2023/05/05 09:09:48;;;;;;;2.33;2.05;;;19.50;59.30;;;;;;4979642;28;20252;-68
2023/05/05 09:12:16;;;;;;;2.50;2.28;;;19.50;59.30;;;;;;4961742;28;20190;-68
2023/05/05 09:14:42;;;;;;;3.10;2.72;;;19.50;59.20;;;;;;4954093;28;20201;-67
2023/05/05 09:17:25;;;;;;;2.90;2.70;;;19.50;59.20;;;;;;4945693;28;20244;-67
2023/05/05 09:20:08;;;;;;;2.83;2.63;;;19.50;59.20;;;;;;4974746;28;20233;-68
2023/05/05 09:22:43;;;;;;;2.67;2.47;;;19.50;59.30;;;;;;4961176;28;20189;-66
2023/05/05 09:25:12;;;;;;;2.78;2.58;;;19.50;59.30;;;;;;4958613;28;20303;-68
2023/05/05 09:27:48;;;;;;;2.88;2.58;;;19.50;59.20;;;;;;4958547;28;20213;-68
2023/05/05 09:30:24;;;;;;;2.60;2.40;;;19.50;59.20;;;;;;4958833;28;20212;-67
2023/05/05 09:32:53;;;;;;;2.78;2.58;;;19.50;59.20;;;;;;4969227;28;20224;-68
2023/05/05 09:35:21;;;;;;;2.45;2.25;;;19.50;59.50;;;;;;4958584;28;20217;-68
2023/05/05 09:37:47;;;;;;;2.53;2.33;;;19.50;59.20;;;;;;4958617;28;20198;-67
2023/05/05 09:40:15;;;;;;;2.38;2.25;;;19.50;59.40;;;;;;4958488;28;20197;-68
2023/05/05 09:42:41;;;;;;;2.63;2.42;;;19.50;59.30;;;;;;4958490;28;20256;-68
2023/05/05 09:45:16;;;;;;;2.45;2.25;;;19.50;59.40;;;;;;4958230;28;20213;-67
2023/05/05 09:47:42;;;;;;;2.97;2.78;;;19.50;59.30;;;;;;4942823;28;20208;-68
2023/05/05 09:50:10;;;;;;;2.67;2.47;;;19.50;59.20;;;;;;4942339;28;20532;-68
2023/05/05 09:52:36;;;;;;;2.42;2.22;;;19.50;59.20;;;;;;4958103;28;20189;-68
2023/05/05 09:55:02;;;;;;;2.35;2.15;;;19.50;59.40;;;;;;4957895;28;20221;-68
2023/05/05 09:57:32;;;;;;;2.25;2.05;;;19.50;59.40;;;;;;4958241;28;20208;-68
2023/05/05 10:00:03;;;;;;;2.35;2.15;;;19.50;59.40;;;;;;4974372;28;20202;-66
2023/05/05 10:02:37;;;;;;;2.45;2.25;;;19.60;59.40;;;;;;4990215;28;20232;-68
2023/05/05 10:05:11;;;;;;;2.35;2.15;;;19.60;59.40;;;;;;4974065;28;20217;-68
2023/05/05 10:07:40;;;;;;;2.20;2.10;;;19.60;59.40;;;;;;4973960;28;20340;-67
2023/05/05 10:10:09;;;;;;;2.33;2.10;;;19.60;59.40;;;;;;4974307;28;20217;-68
2023/05/05 10:12:36;;;;;;;2.45;2.00;;;19.60;59.30;;;;;;4973976;28;20186;-68
2023/05/05 10:15:05;;;;;;;2.72;1.90;;;19.60;59.20;;;;;;4941889;28;20214;-67
2023/05/05 10:17:37;;;;;;;2.83;2.00;;;19.60;59.40;;;;;;4957911;28;20205;-68
2023/05/05 10:20:04;;;;;;;2.20;2.10;;;19.60;59.40;;;;;;4958032;28;20211;-68
2023/05/05 10:22:34;;;;;;;2.50;2.30;;;19.60;59.40;;;;;;4942052;28;20208;-67
2023/05/05 10:25:10;;;;;;;2.15;2.00;;;19.60;59.40;;;;;;4957796;28;20209;-68
2023/05/05 10:27:44;;;;;;;2.45;2.25;;;19.60;59.40;;;;;;4974770;28;20209;-67
2023/05/05 10:30:25;;;;;;;2.00;1.90;;;19.60;59.30;;;;;;4975241;28;20251;-68
2023/05/05 10:33:02;;;;;;;2.20;2.10;;;19.60;59.30;;;;;;4957633;28;20241;-68
2023/05/05 10:35:31;;;;;;;2.03;1.90;;;19.60;59.20;;;;;;4957279;28;20209;-68
2023/05/05 10:37:58;;;;;;;2.00;1.80;;;19.60;59.50;;;;;;4941502;28;20205;-67
2023/05/05 10:40:25;;;;;;;2.22;2.10;;;19.60;59.40;;;;;;4957647;28;20236;-68
2023/05/05 10:42:53;;;;;;;2.17;1.90;;;19.60;59.20;;;;;;4957400;28;20203;-67
2023/05/05 10:45:19;;;;;;;2.33;2.13;;;19.60;59.40;;;;;;4957266;28;20224;-68
2023/05/05 10:47:46;;;;;;;2.40;2.20;;;19.70;59.50;;;;;;4957204;28;20221;-68
2023/05/05 10:50:29;;;;;;;2.33;2.17;;;19.70;59.50;;;;;;4957280;28;20212;-68
2023/05/05 10:53:07;;;;;;;2.08;1.98;;;19.70;59.50;;;;;;4957233;28;20217;-67
2023/05/05 10:55:58;;;;;;;2.42;2.22;;;19.70;59.60;;;;;;4974432;28;20221;-68
2023/05/05 10:58:37;;;;;;;2.67;2.13;;;19.70;59.50;;;;;;4941445;28;20181;-68
2023/05/05 11:01:04;;;;;;;2.33;2.17;;;19.70;59.50;;;;;;4974408;28;20201;-68
2023/05/05 11:03:30;;;;;;;2.65;2.10;;;19.70;59.70;;;;;;4956806;28;20276;-68
2023/05/05 11:06:07;;;;;;;2.45;2.22;;;19.70;59.60;;;;;;4974142;28;20663;-67
2023/05/05 11:08:34;;;;;;;2.33;2.10;;;19.70;59.70;;;;;;4972559;28;20725;-68
2023/05/05 11:11:01;;;;;;;2.47;2.25;;;19.70;59.60;;;;;;4956208;28;20189;-68
2023/05/05 11:13:28;;;;;;;2.10;2.00;;;19.70;59.40;;;;;;4956968;28;20235;-67
2023/05/05 11:15:55;;;;;;;2.30;2.10;;;19.70;59.50;;;;;;4972681;28;20212;-68
2023/05/05 11:18:44;;;;;;;2.88;2.65;;;19.70;59.60;;;;;;4974068;28;20200;-68
2023/05/05 11:21:15;;;;;;;2.25;2.08;;;19.70;59.60;;;;;;4939536;28;20190;-68
2023/05/05 11:23:45;;;;;;;2.40;2.10;;;19.70;59.50;;;;;;4956761;28;20182;-67
2023/05/05 11:26:13;;;;;;;3.25;2.17;;;19.70;59.50;;;;;;4973684;28;20190;-68
2023/05/05 11:29:02;;;;;;;2.10;1.95;;;19.70;59.40;;;;;;4973643;28;20220;-68
2023/05/05 11:31:30;;;;;;;2.45;1.98;;;19.70;59.50;;;;;;4956473;28;20193;-68
2023/05/05 11:34:24;;;;;;;2.25;1.90;;;19.70;59.40;;;;;;4988877;28;20212;-68
2023/05/05 11:36:55;;;;;;;2.20;2.10;;;19.70;59.60;;;;;;4947326;28;20197;-67
2023/05/05 11:39:30;;;;;;;2.25;1.92;;;19.80;59.60;;;;;;4956865;28;20194;-67
2023/05/05 11:42:25;;;;;;;2.30;2.17;;;19.80;59.70;;;;;;4956494;28;20196;-67
2023/05/05 11:44:51;;;;;;;2.15;1.95;;;19.80;60.40;;;;;;4956104;28;20210;-68
2023/05/05 11:47:17;;;;;;;4.53;1.90;;;19.80;59.60;;;;;;4988035;28;20213;-68
2023/05/05 11:49:43;;;;;;;2.40;2.20;;;19.80;59.60;;;;;;4940091;28;20216;-68
2023/05/05 11:52:12;;;;;;;2.15;1.90;;;19.80;59.60;;;;;;4956480;28;20200;-68
2023/05/05 11:54:47;;;;;;;2.15;1.95;;;19.80;59.60;;;;;;4987960;28;20225;-68
2023/05/05 11:57:26;;;;;;;2.88;1.77;;;19.80;59.70;;;;;;4972331;28;20309;-68
2023/05/05 12:00:06;;;;;;;2.22;2.13;;;19.80;59.70;;;;;;4980841;28;20200;-68
2023/05/05 12:02:33;;;;;;;2.28;2.10;;;19.80;59.70;;;;;;4972109;28;20204;-68
2023/05/05 12:04:59;;;;;;;1.90;1.80;;;19.80;59.70;;;;;;4971899;28;20206;-67
2023/05/05 12:07:29;;;;;;;2.53;1.95;;;19.80;59.70;;;;;;4973430;28;20213;-68
2023/05/05 12:09:55;;;;;;;2.35;2.08;;;19.80;59.70;;;;;;4969232;28;20190;-67
2023/05/05 12:12:39;;;;;;;2.40;2.10;;;19.80;59.70;;;;;;4952433;28;20193;-68
2023/05/05 12:15:06;;;;;;;1.92;1.77;;;19.80;59.80;;;;;;4967170;28;20224;-68
2023/05/05 12:17:44;;;;;;;1.90;1.70;;;19.80;59.80;;;;;;4973160;28;20201;-68
2023/05/05 12:20:11;;;;;;;1.80;1.70;;;19.80;59.80;;;;;;4956062;28;20185;-68
2023/05/05 12:22:38;;;;;;;2.25;2.05;;;19.80;59.80;;;;;;4971427;28;20213;-68
2023/05/05 12:25:06;;;;;;;1.80;1.70;;;19.80;59.80;;;;;;4955740;28;20217;-68
2023/05/05 12:27:34;;;;;;;3.75;1.77;;;19.80;59.80;;;;;;4955955;28;20270;-68
2023/05/05 12:30:16;;;;;;;2.95;2.10;;;19.80;59.70;;;;;;4938333;28;20217;-68
2023/05/05 12:32:44;;;;;;;2.05;1.95;;;19.80;59.80;;;;;;4970787;28;20269;-67
2023/05/05 12:35:11;;;;;;;2.15;2.05;;;19.80;59.70;;;;;;4939556;28;20218;-68
2023/05/05 12:37:37;;;;;;;2.08;1.50;;;19.80;59.70;;;;;;4956020;28;20220;-68
2023/05/05 12:40:05;;;;;;;2.20;2.00;;;19.80;59.70;;;;;;4955652;28;20190;-68
2023/05/05 12:42:31;;;;;;;1.88;1.73;;;19.80;59.70;;;;;;4955842;28;20190;-67
2023/05/05 12:44:56;;;;;;;2.45;2.25;;;19.80;59.80;;;;;;4972786;28;20242;-68
2023/05/05 12:47:30;;;;;;;1.77;1.67;;;19.80;59.80;;;;;;4973023;28;20209;-68
2023/05/05 12:49:58;;;;;;;2.15;1.70;;;19.90;59.90;;;;;;4973015;28;20194;-67
2023/05/05 12:52:39;;;;;;;2.00;1.90;;;19.80;59.80;;;;;;4955600;28;20194;-68
2023/05/05 12:55:05;;;;;;;1.92;1.83;;;19.80;59.70;;;;;;4955476;28;20642;-69
2023/05/05 12:57:31;;;;;;;2.03;1.90;;;19.80;59.70;;;;;;4955766;28;20539;-68
2023/05/05 12:59:57;;;;;;;1.70;1.60;;;19.90;59.80;;;;;;4942083;28;20201;-68
2023/05/05 13:02:33;;;;;;;2.17;1.98;;;19.90;59.80;;;;;;4959210;28;20661;-68